sensor_id;sensor_type;location;lat;lon;timestamp;P1;durP1;ratioP1;P2;durP2;ratioP2
32826;SDS011;51059;42.058;27.986;2023-07-20T00:00:09;9.25;;;6.88;;
32826;SDS011;51059;42.058;27.986;2023-07-20T00:02:38;12.18;;;7.18;;
32826;SDS011;51059;42.058;27.986;2023-07-20T00:05:04;12.38;;;7.10;;
32826;SDS011;51059;42.058;27.986;2023-07-20T00:07:30;11.07;;;7.00;;
32826;SDS011;51059;42.058;27.986;2023-07-20T00:09:56;9.75;;;6.97;;
32826;SDS011;51059;42.058;27.986;2023-07-20T00:12:21;8.23;;;6.90;;
32826;SDS011;51059;42.058;27.986;2023-07-20T00:14:47;11.50;;;7.03;;
32826;SDS011;51059;42.058;27.986;2023-07-20T00:17:12;12.25;;;7.50;;
32826;SDS011;51059;42.058;27.986;2023-07-20T00:19:38;9.00;;;7.80;;
32826;SDS011;51059;42.058;27.986;2023-07-20T00:22:04;12.02;;;7.78;;
32826;SDS011;51059;42.058;27.986;2023-07-20T00:24:30;11.95;;;7.07;;
32826;SDS011;51059;42.058;27.986;2023-07-20T00:26:56;9.25;;;7.57;;
32826;SDS011;51059;42.058;27.986;2023-07-20T00:29:22;11.10;;;7.60;;
32826;SDS011;51059;42.058;27.986;2023-07-20T00:31:48;9.23;;;7.85;;
32826;SDS011;51059;42.058;27.986;2023-07-20T00:34:14;9.95;;;7.93;;
32826;SDS011;51059;42.058;27.986;2023-07-20T00:36:40;10.75;;;8.25;;
32826;SDS011;51059;42.058;27.986;2023-07-20T00:39:06;8.27;;;7.07;;
32826;SDS011;51059;42.058;27.986;2023-07-20T00:41:33;10.38;;;8.38;;
32826;SDS011;51059;42.058;27.986;2023-07-20T00:43:59;11.90;;;7.65;;
32826;SDS011;51059;42.058;27.986;2023-07-20T00:46:24;11.73;;;8.20;;
32826;SDS011;51059;42.058;27.986;2023-07-20T00:48:50;10.80;;;8.23;;
32826;SDS011;51059;42.058;27.986;2023-07-20T00:51:17;14.40;;;7.95;;
32826;SDS011;51059;42.058;27.986;2023-07-20T00:53:48;9.45;;;8.13;;
32826;SDS011;51059;42.058;27.986;2023-07-20T00:56:15;12.88;;;8.70;;
32826;SDS011;51059;42.058;27.986;2023-07-20T00:58:41;9.82;;;8.15;;
32826;SDS011;51059;42.058;27.986;2023-07-20T01:01:07;9.40;;;8.52;;
32826;SDS011;51059;42.058;27.986;2023-07-20T01:03:33;10.57;;;8.77;;
32826;SDS011;51059;42.058;27.986;2023-07-20T01:08:35;12.13;;;8.88;;
32826;SDS011;51059;42.058;27.986;2023-07-20T01:11:14;12.85;;;8.30;;
32826;SDS011;51059;42.058;27.986;2023-07-20T01:13:43;11.45;;;8.85;;
32826;SDS011;51059;42.058;27.986;2023-07-20T01:16:09;16.60;;;9.02;;
32826;SDS011;51059;42.058;27.986;2023-07-20T01:18:34;10.27;;;9.18;;
32826;SDS011;51059;42.058;27.986;2023-07-20T01:21:03;11.55;;;9.05;;
32826;SDS011;51059;42.058;27.986;2023-07-20T01:23:58;10.07;;;9.00;;
32826;SDS011;51059;42.058;27.986;2023-07-20T01:26:27;11.20;;;8.82;;
32826;SDS011;51059;42.058;27.986;2023-07-20T01:31:39;10.90;;;9.60;;
32826;SDS011;51059;42.058;27.986;2023-07-20T01:34:06;17.23;;;10.50;;
32826;SDS011;51059;42.058;27.986;2023-07-20T01:36:34;13.27;;;10.40;;
32826;SDS011;51059;42.058;27.986;2023-07-20T01:39:00;11.07;;;9.43;;
32826;SDS011;51059;42.058;27.986;2023-07-20T01:41:27;10.60;;;9.47;;
32826;SDS011;51059;42.058;27.986;2023-07-20T01:43:57;13.10;;;11.70;;
32826;SDS011;51059;42.058;27.986;2023-07-20T01:46:23;16.13;;;14.23;;
32826;SDS011;51059;42.058;27.986;2023-07-20T01:48:50;15.68;;;11.27;;
32826;SDS011;51059;42.058;27.986;2023-07-20T01:51:16;13.27;;;10.88;;
32826;SDS011;51059;42.058;27.986;2023-07-20T01:53:43;12.23;;;10.77;;
32826;SDS011;51059;42.058;27.986;2023-07-20T01:56:08;20.27;;;11.32;;
32826;SDS011;51059;42.058;27.986;2023-07-20T01:58:34;15.30;;;11.73;;
32826;SDS011;51059;42.058;27.986;2023-07-20T02:01:00;15.18;;;13.00;;
32826;SDS011;51059;42.058;27.986;2023-07-20T02:03:35;20.97;;;14.97;;
32826;SDS011;51059;42.058;27.986;2023-07-20T02:06:01;14.35;;;11.90;;
32826;SDS011;51059;42.058;27.986;2023-07-20T02:08:27;11.70;;;10.50;;
32826;SDS011;51059;42.058;27.986;2023-07-20T02:10:54;10.90;;;9.70;;
32826;SDS011;51059;42.058;27.986;2023-07-20T02:13:19;26.17;;;17.35;;
32826;SDS011;51059;42.058;27.986;2023-07-20T02:15:44;50.67;;;30.07;;
32826;SDS011;51059;42.058;27.986;2023-07-20T02:18:12;58.47;;;31.63;;
32826;SDS011;51059;42.058;27.986;2023-07-20T02:20:38;25.65;;;16.80;;
32826;SDS011;51059;42.058;27.986;2023-07-20T02:23:05;22.87;;;14.70;;
32826;SDS011;51059;42.058;27.986;2023-07-20T02:25:32;23.48;;;13.57;;
32826;SDS011;51059;42.058;27.986;2023-07-20T02:27:58;16.13;;;11.10;;
32826;SDS011;51059;42.058;27.986;2023-07-20T02:30:24;12.70;;;11.23;;
32826;SDS011;51059;42.058;27.986;2023-07-20T02:32:50;17.50;;;10.63;;
32826;SDS011;51059;42.058;27.986;2023-07-20T02:35:16;15.57;;;10.70;;
32826;SDS011;51059;42.058;27.986;2023-07-20T02:37:41;13.05;;;10.63;;
32826;SDS011;51059;42.058;27.986;2023-07-20T02:40:07;12.23;;;10.93;;
32826;SDS011;51059;42.058;27.986;2023-07-20T02:42:34;14.10;;;11.32;;
32826;SDS011;51059;42.058;27.986;2023-07-20T02:45:00;15.70;;;11.05;;
32826;SDS011;51059;42.058;27.986;2023-07-20T02:47:26;11.60;;;10.45;;
32826;SDS011;51059;42.058;27.986;2023-07-20T02:49:51;11.63;;;10.10;;
32826;SDS011;51059;42.058;27.986;2023-07-20T02:52:16;14.30;;;11.27;;
32826;SDS011;51059;42.058;27.986;2023-07-20T02:54:42;12.75;;;11.05;;
32826;SDS011;51059;42.058;27.986;2023-07-20T02:57:08;15.40;;;10.90;;
32826;SDS011;51059;42.058;27.986;2023-07-20T02:59:34;13.93;;;11.43;;
32826;SDS011;51059;42.058;27.986;2023-07-20T03:02:00;15.52;;;11.30;;
32826;SDS011;51059;42.058;27.986;2023-07-20T03:04:26;16.47;;;10.53;;
32826;SDS011;51059;42.058;27.986;2023-07-20T03:06:52;11.93;;;10.30;;
32826;SDS011;51059;42.058;27.986;2023-07-20T03:09:18;12.23;;;10.35;;
32826;SDS011;51059;42.058;27.986;2023-07-20T03:11:44;14.23;;;10.40;;
32826;SDS011;51059;42.058;27.986;2023-07-20T03:14:10;12.27;;;9.95;;
32826;SDS011;51059;42.058;27.986;2023-07-20T03:16:36;10.88;;;9.77;;
32826;SDS011;51059;42.058;27.986;2023-07-20T03:19:02;12.80;;;9.70;;
32826;SDS011;51059;42.058;27.986;2023-07-20T03:21:29;10.90;;;9.80;;
32826;SDS011;51059;42.058;27.986;2023-07-20T03:23:54;13.38;;;9.43;;
32826;SDS011;51059;42.058;27.986;2023-07-20T03:26:20;10.63;;;8.98;;
32826;SDS011;51059;42.058;27.986;2023-07-20T03:28:46;12.95;;;8.98;;
32826;SDS011;51059;42.058;27.986;2023-07-20T03:31:12;11.85;;;8.75;;
32826;SDS011;51059;42.058;27.986;2023-07-20T03:33:38;11.70;;;9.18;;
32826;SDS011;51059;42.058;27.986;2023-07-20T03:36:04;15.85;;;9.13;;
32826;SDS011;51059;42.058;27.986;2023-07-20T03:38:31;17.95;;;12.07;;
32826;SDS011;51059;42.058;27.986;2023-07-20T03:40:58;12.75;;;10.10;;
32826;SDS011;51059;42.058;27.986;2023-07-20T03:43:24;11.50;;;8.98;;
32826;SDS011;51059;42.058;27.986;2023-07-20T03:45:51;12.20;;;8.90;;
32826;SDS011;51059;42.058;27.986;2023-07-20T03:48:17;9.80;;;8.00;;
32826;SDS011;51059;42.058;27.986;2023-07-20T03:50:48;11.90;;;7.90;;
32826;SDS011;51059;42.058;27.986;2023-07-20T03:53:14;11.10;;;7.30;;
32826;SDS011;51059;42.058;27.986;2023-07-20T03:55:41;13.20;;;6.70;;
32826;SDS011;51059;42.058;27.986;2023-07-20T03:58:07;13.32;;;8.85;;
32826;SDS011;51059;42.058;27.986;2023-07-20T04:00:33;12.57;;;9.32;;
32826;SDS011;51059;42.058;27.986;2023-07-20T04:02:59;9.90;;;8.90;;
32826;SDS011;51059;42.058;27.986;2023-07-20T04:05:25;8.60;;;7.80;;
32826;SDS011;51059;42.058;27.986;2023-07-20T04:07:51;9.38;;;6.90;;
32826;SDS011;51059;42.058;27.986;2023-07-20T04:10:17;9.55;;;7.40;;
32826;SDS011;51059;42.058;27.986;2023-07-20T04:12:43;8.43;;;7.45;;
32826;SDS011;51059;42.058;27.986;2023-07-20T04:15:09;12.20;;;7.60;;
32826;SDS011;51059;42.058;27.986;2023-07-20T04:17:35;7.57;;;5.30;;
32826;SDS011;51059;42.058;27.986;2023-07-20T04:20:00;8.85;;;5.88;;
32826;SDS011;51059;42.058;27.986;2023-07-20T04:22:26;11.10;;;5.05;;
32826;SDS011;51059;42.058;27.986;2023-07-20T04:24:53;10.88;;;5.47;;
32826;SDS011;51059;42.058;27.986;2023-07-20T04:27:18;18.33;;;7.75;;
32826;SDS011;51059;42.058;27.986;2023-07-20T04:29:44;18.52;;;6.00;;
32826;SDS011;51059;42.058;27.986;2023-07-20T04:32:09;11.90;;;5.65;;
32826;SDS011;51059;42.058;27.986;2023-07-20T04:34:36;16.73;;;5.13;;
32826;SDS011;51059;42.058;27.986;2023-07-20T04:37:04;8.18;;;5.32;;
32826;SDS011;51059;42.058;27.986;2023-07-20T04:39:30;9.15;;;5.10;;
32826;SDS011;51059;42.058;27.986;2023-07-20T04:41:56;12.23;;;4.85;;
32826;SDS011;51059;42.058;27.986;2023-07-20T04:44:22;18.80;;;5.20;;
32826;SDS011;51059;42.058;27.986;2023-07-20T04:46:48;5.78;;;4.55;;
32826;SDS011;51059;42.058;27.986;2023-07-20T04:49:14;17.75;;;4.85;;
32826;SDS011;51059;42.058;27.986;2023-07-20T04:51:40;15.50;;;5.13;;
32826;SDS011;51059;42.058;27.986;2023-07-20T04:54:08;6.93;;;4.40;;
32826;SDS011;51059;42.058;27.986;2023-07-20T04:56:33;9.60;;;5.43;;
32826;SDS011;51059;42.058;27.986;2023-07-20T04:58:59;6.63;;;4.80;;
32826;SDS011;51059;42.058;27.986;2023-07-20T05:01:25;7.90;;;4.90;;
32826;SDS011;51059;42.058;27.986;2023-07-20T05:03:52;7.20;;;5.13;;
32826;SDS011;51059;42.058;27.986;2023-07-20T05:06:18;6.68;;;5.20;;
32826;SDS011;51059;42.058;27.986;2023-07-20T05:08:44;12.95;;;5.50;;
32826;SDS011;51059;42.058;27.986;2023-07-20T05:11:10;9.18;;;5.57;;
32826;SDS011;51059;42.058;27.986;2023-07-20T05:13:36;8.85;;;5.13;;
32826;SDS011;51059;42.058;27.986;2023-07-20T05:16:02;9.98;;;5.30;;
32826;SDS011;51059;42.058;27.986;2023-07-20T05:18:28;5.68;;;5.10;;
32826;SDS011;51059;42.058;27.986;2023-07-20T05:20:55;7.88;;;5.57;;
32826;SDS011;51059;42.058;27.986;2023-07-20T05:23:20;5.10;;;4.63;;
32826;SDS011;51059;42.058;27.986;2023-07-20T05:25:46;8.45;;;5.32;;
32826;SDS011;51059;42.058;27.986;2023-07-20T05:28:12;10.15;;;6.45;;
32826;SDS011;51059;42.058;27.986;2023-07-20T05:30:38;17.42;;;15.90;;
32826;SDS011;51059;42.058;27.986;2023-07-20T05:33:06;13.10;;;7.13;;
32826;SDS011;51059;42.058;27.986;2023-07-20T05:35:31;6.60;;;5.03;;
32826;SDS011;51059;42.058;27.986;2023-07-20T05:37:57;6.35;;;4.70;;
32826;SDS011;51059;42.058;27.986;2023-07-20T05:40:22;27.15;;;5.75;;
32826;SDS011;51059;42.058;27.986;2023-07-20T05:42:48;6.47;;;4.70;;
32826;SDS011;51059;42.058;27.986;2023-07-20T05:45:18;10.13;;;4.85;;
32826;SDS011;51059;42.058;27.986;2023-07-20T05:47:43;5.13;;;4.70;;
32826;SDS011;51059;42.058;27.986;2023-07-20T05:50:10;12.00;;;4.90;;
32826;SDS011;51059;42.058;27.986;2023-07-20T05:52:36;5.23;;;4.47;;
32826;SDS011;51059;42.058;27.986;2023-07-20T05:55:04;10.20;;;4.70;;
32826;SDS011;51059;42.058;27.986;2023-07-20T05:57:30;8.50;;;5.15;;
32826;SDS011;51059;42.058;27.986;2023-07-20T05:59:55;5.88;;;4.93;;
32826;SDS011;51059;42.058;27.986;2023-07-20T06:02:21;7.50;;;4.63;;
32826;SDS011;51059;42.058;27.986;2023-07-20T06:04:47;9.77;;;4.90;;
32826;SDS011;51059;42.058;27.986;2023-07-20T06:07:12;8.48;;;4.50;;
32826;SDS011;51059;42.058;27.986;2023-07-20T06:09:39;6.03;;;4.70;;
32826;SDS011;51059;42.058;27.986;2023-07-20T06:12:05;7.05;;;5.20;;
32826;SDS011;51059;42.058;27.986;2023-07-20T06:14:31;7.70;;;4.60;;
32826;SDS011;51059;42.058;27.986;2023-07-20T06:16:57;9.38;;;5.75;;
32826;SDS011;51059;42.058;27.986;2023-07-20T06:19:22;13.45;;;5.57;;
32826;SDS011;51059;42.058;27.986;2023-07-20T06:21:48;7.43;;;4.82;;
32826;SDS011;51059;42.058;27.986;2023-07-20T06:24:15;7.10;;;5.28;;
32826;SDS011;51059;42.058;27.986;2023-07-20T06:26:41;6.35;;;4.60;;
32826;SDS011;51059;42.058;27.986;2023-07-20T06:29:06;9.32;;;4.65;;
32826;SDS011;51059;42.058;27.986;2023-07-20T06:31:35;6.97;;;5.00;;
32826;SDS011;51059;42.058;27.986;2023-07-20T06:34:01;7.55;;;4.90;;
32826;SDS011;51059;42.058;27.986;2023-07-20T06:36:27;15.85;;;5.13;;
32826;SDS011;51059;42.058;27.986;2023-07-20T06:38:54;10.80;;;4.70;;
32826;SDS011;51059;42.058;27.986;2023-07-20T06:41:19;6.97;;;5.15;;
32826;SDS011;51059;42.058;27.986;2023-07-20T06:43:45;6.10;;;5.00;;
32826;SDS011;51059;42.058;27.986;2023-07-20T06:46:11;14.38;;;7.65;;
32826;SDS011;51059;42.058;27.986;2023-07-20T06:48:37;8.55;;;5.05;;
32826;SDS011;51059;42.058;27.986;2023-07-20T06:51:05;7.55;;;5.20;;
32826;SDS011;51059;42.058;27.986;2023-07-20T06:53:31;6.68;;;5.30;;
32826;SDS011;51059;42.058;27.986;2023-07-20T06:55:57;7.38;;;4.88;;
32826;SDS011;51059;42.058;27.986;2023-07-20T06:58:23;7.32;;;5.05;;
32826;SDS011;51059;42.058;27.986;2023-07-20T07:00:49;6.30;;;5.38;;
32826;SDS011;51059;42.058;27.986;2023-07-20T07:03:15;7.07;;;5.32;;
32826;SDS011;51059;42.058;27.986;2023-07-20T07:05:41;15.00;;;5.57;;
32826;SDS011;51059;42.058;27.986;2023-07-20T07:08:07;8.63;;;5.13;;
32826;SDS011;51059;42.058;27.986;2023-07-20T07:10:34;11.48;;;5.47;;
32826;SDS011;51059;42.058;27.986;2023-07-20T07:13:01;11.48;;;5.20;;
32826;SDS011;51059;42.058;27.986;2023-07-20T07:15:27;15.13;;;5.53;;
32826;SDS011;51059;42.058;27.986;2023-07-20T07:17:52;15.57;;;6.82;;
32826;SDS011;51059;42.058;27.986;2023-07-20T07:20:18;7.30;;;5.43;;
32826;SDS011;51059;42.058;27.986;2023-07-20T07:22:45;8.32;;;5.22;;
32826;SDS011;51059;42.058;27.986;2023-07-20T07:25:12;13.52;;;5.40;;
32826;SDS011;51059;42.058;27.986;2023-07-20T07:27:39;10.10;;;5.63;;
32826;SDS011;51059;42.058;27.986;2023-07-20T07:30:04;9.10;;;5.65;;
32826;SDS011;51059;42.058;27.986;2023-07-20T07:32:31;6.55;;;5.05;;
32826;SDS011;51059;42.058;27.986;2023-07-20T07:34:56;8.00;;;5.65;;
32826;SDS011;51059;42.058;27.986;2023-07-20T07:37:24;14.55;;;5.53;;
32826;SDS011;51059;42.058;27.986;2023-07-20T07:39:50;8.73;;;5.80;;
32826;SDS011;51059;42.058;27.986;2023-07-20T07:42:15;12.40;;;5.43;;
32826;SDS011;51059;42.058;27.986;2023-07-20T07:44:41;8.27;;;5.20;;
32826;SDS011;51059;42.058;27.986;2023-07-20T07:47:07;11.35;;;5.68;;
32826;SDS011;51059;42.058;27.986;2023-07-20T07:49:33;16.88;;;6.40;;
32826;SDS011;51059;42.058;27.986;2023-07-20T07:51:58;16.42;;;5.95;;
32826;SDS011;51059;42.058;27.986;2023-07-20T07:54:28;12.30;;;6.13;;
32826;SDS011;51059;42.058;27.986;2023-07-20T07:56:54;11.75;;;5.70;;
32826;SDS011;51059;42.058;27.986;2023-07-20T07:59:20;10.75;;;5.90;;
32826;SDS011;51059;42.058;27.986;2023-07-20T08:01:47;9.02;;;5.90;;
32826;SDS011;51059;42.058;27.986;2023-07-20T08:04:12;18.52;;;5.80;;
32826;SDS011;51059;42.058;27.986;2023-07-20T08:06:38;11.02;;;6.03;;
32826;SDS011;51059;42.058;27.986;2023-07-20T08:09:04;8.70;;;6.00;;
32826;SDS011;51059;42.058;27.986;2023-07-20T08:11:31;9.80;;;6.17;;
32826;SDS011;51059;42.058;27.986;2023-07-20T08:14:01;19.05;;;15.82;;
32826;SDS011;51059;42.058;27.986;2023-07-20T08:16:26;12.65;;;6.93;;
32826;SDS011;51059;42.058;27.986;2023-07-20T08:18:52;10.10;;;6.68;;
32826;SDS011;51059;42.058;27.986;2023-07-20T08:21:18;11.48;;;6.22;;
32826;SDS011;51059;42.058;27.986;2023-07-20T08:23:43;7.30;;;6.60;;
32826;SDS011;51059;42.058;27.986;2023-07-20T08:26:09;13.63;;;7.15;;
32826;SDS011;51059;42.058;27.986;2023-07-20T08:28:34;13.98;;;7.78;;
32826;SDS011;51059;42.058;27.986;2023-07-20T08:31:01;11.63;;;6.75;;
32826;SDS011;51059;42.058;27.986;2023-07-20T08:33:29;12.82;;;7.00;;
32826;SDS011;51059;42.058;27.986;2023-07-20T08:35:59;10.63;;;7.50;;
32826;SDS011;51059;42.058;27.986;2023-07-20T08:38:26;9.27;;;7.22;;
32826;SDS011;51059;42.058;27.986;2023-07-20T08:40:53;11.93;;;7.07;;
32826;SDS011;51059;42.058;27.986;2023-07-20T08:43:22;12.50;;;7.38;;
32826;SDS011;51059;42.058;27.986;2023-07-20T08:45:49;16.33;;;8.05;;
32826;SDS011;51059;42.058;27.986;2023-07-20T08:48:15;11.07;;;8.43;;
32826;SDS011;51059;42.058;27.986;2023-07-20T08:50:41;13.43;;;8.38;;
32826;SDS011;51059;42.058;27.986;2023-07-20T08:53:06;12.55;;;7.40;;
32826;SDS011;51059;42.058;27.986;2023-07-20T08:55:34;8.70;;;7.70;;
32826;SDS011;51059;42.058;27.986;2023-07-20T08:58:00;15.05;;;7.95;;
32826;SDS011;51059;42.058;27.986;2023-07-20T09:00:27;11.98;;;8.40;;
32826;SDS011;51059;42.058;27.986;2023-07-20T09:02:54;12.80;;;8.40;;
32826;SDS011;51059;42.058;27.986;2023-07-20T09:05:22;15.38;;;8.63;;
32826;SDS011;51059;42.058;27.986;2023-07-20T09:07:48;12.15;;;9.05;;
32826;SDS011;51059;42.058;27.986;2023-07-20T09:10:14;14.02;;;9.25;;
32826;SDS011;51059;42.058;27.986;2023-07-20T09:12:42;16.15;;;8.98;;
32826;SDS011;51059;42.058;27.986;2023-07-20T09:15:09;19.73;;;9.13;;
32826;SDS011;51059;42.058;27.986;2023-07-20T09:17:35;11.10;;;7.82;;
32826;SDS011;51059;42.058;27.986;2023-07-20T09:20:07;15.82;;;8.45;;
32826;SDS011;51059;42.058;27.986;2023-07-20T09:22:36;10.95;;;7.95;;
32826;SDS011;51059;42.058;27.986;2023-07-20T09:25:14;10.40;;;8.32;;
32826;SDS011;51059;42.058;27.986;2023-07-20T09:27:41;13.15;;;8.70;;
32826;SDS011;51059;42.058;27.986;2023-07-20T09:30:07;14.90;;;9.00;;
32826;SDS011;51059;42.058;27.986;2023-07-20T09:32:46;14.02;;;8.02;;
32826;SDS011;51059;42.058;27.986;2023-07-20T09:35:19;15.15;;;8.90;;
32826;SDS011;51059;42.058;27.986;2023-07-20T09:40:17;17.65;;;11.35;;
32826;SDS011;51059;42.058;27.986;2023-07-20T09:42:43;15.43;;;11.38;;
32826;SDS011;51059;42.058;27.986;2023-07-20T09:45:09;11.63;;;8.05;;
32826;SDS011;51059;42.058;27.986;2023-07-20T09:47:39;15.10;;;8.50;;
32826;SDS011;51059;42.058;27.986;2023-07-20T09:50:06;15.45;;;9.00;;
32826;SDS011;51059;42.058;27.986;2023-07-20T09:52:39;15.82;;;8.38;;
32826;SDS011;51059;42.058;27.986;2023-07-20T09:55:14;16.48;;;8.85;;
32826;SDS011;51059;42.058;27.986;2023-07-20T09:57:40;14.57;;;8.07;;
32826;SDS011;51059;42.058;27.986;2023-07-20T10:00:06;13.70;;;8.45;;
32826;SDS011;51059;42.058;27.986;2023-07-20T10:02:37;12.55;;;8.82;;
32826;SDS011;51059;42.058;27.986;2023-07-20T10:05:06;15.80;;;7.95;;
32826;SDS011;51059;42.058;27.986;2023-07-20T10:07:35;9.85;;;8.63;;
32826;SDS011;51059;42.058;27.986;2023-07-20T10:10:02;13.30;;;8.45;;
32826;SDS011;51059;42.058;27.986;2023-07-20T10:12:29;11.50;;;8.45;;
32826;SDS011;51059;42.058;27.986;2023-07-20T10:15:15;9.80;;;8.13;;
32826;SDS011;51059;42.058;27.986;2023-07-20T10:20:27;9.60;;;8.15;;
32826;SDS011;51059;42.058;27.986;2023-07-20T10:22:53;13.73;;;7.68;;
32826;SDS011;51059;42.058;27.986;2023-07-20T10:25:20;10.45;;;8.27;;
32826;SDS011;51059;42.058;27.986;2023-07-20T10:27:47;10.00;;;7.97;;
32826;SDS011;51059;42.058;27.986;2023-07-20T10:30:13;13.48;;;8.50;;
32826;SDS011;51059;42.058;27.986;2023-07-20T10:32:41;10.15;;;8.23;;
32826;SDS011;51059;42.058;27.986;2023-07-20T10:35:14;9.63;;;8.25;;
32826;SDS011;51059;42.058;27.986;2023-07-20T10:40:39;17.45;;;8.80;;
32826;SDS011;51059;42.058;27.986;2023-07-20T10:43:08;10.88;;;8.63;;
32826;SDS011;51059;42.058;27.986;2023-07-20T10:45:35;10.23;;;8.20;;
32826;SDS011;51059;42.058;27.986;2023-07-20T10:48:09;11.65;;;8.95;;
32826;SDS011;51059;42.058;27.986;2023-07-20T10:50:38;13.15;;;8.80;;
32826;SDS011;51059;42.058;27.986;2023-07-20T10:53:04;12.68;;;8.63;;
32826;SDS011;51059;42.058;27.986;2023-07-20T10:55:32;13.70;;;8.55;;
32826;SDS011;51059;42.058;27.986;2023-07-20T10:58:11;11.73;;;8.50;;
32826;SDS011;51059;42.058;27.986;2023-07-20T11:00:37;9.77;;;8.20;;
32826;SDS011;51059;42.058;27.986;2023-07-20T11:03:03;10.10;;;7.60;;
32826;SDS011;51059;42.058;27.986;2023-07-20T11:05:47;13.77;;;8.25;;
32826;SDS011;51059;42.058;27.986;2023-07-20T11:08:14;11.02;;;7.78;;
32826;SDS011;51059;42.058;27.986;2023-07-20T11:13:53;12.00;;;8.02;;
32826;SDS011;51059;42.058;27.986;2023-07-20T11:16:18;15.25;;;7.80;;
32826;SDS011;51059;42.058;27.986;2023-07-20T11:18:46;11.70;;;8.07;;
32826;SDS011;51059;42.058;27.986;2023-07-20T11:21:12;11.98;;;7.70;;
32826;SDS011;51059;42.058;27.986;2023-07-20T11:23:38;12.90;;;10.00;;
32826;SDS011;51059;42.058;27.986;2023-07-20T11:26:04;14.02;;;10.35;;
32826;SDS011;51059;42.058;27.986;2023-07-20T11:28:34;13.15;;;11.75;;
32826;SDS011;51059;42.058;27.986;2023-07-20T11:31:01;8.02;;;7.20;;
32826;SDS011;51059;42.058;27.986;2023-07-20T11:33:26;10.88;;;6.95;;
32826;SDS011;51059;42.058;27.986;2023-07-20T11:35:52;12.10;;;7.45;;
32826;SDS011;51059;42.058;27.986;2023-07-20T11:38:18;11.50;;;7.40;;
32826;SDS011;51059;42.058;27.986;2023-07-20T11:40:44;13.23;;;7.77;;
32826;SDS011;51059;42.058;27.986;2023-07-20T11:43:10;11.02;;;6.88;;
32826;SDS011;51059;42.058;27.986;2023-07-20T11:45:37;12.65;;;7.50;;
32826;SDS011;51059;42.058;27.986;2023-07-20T11:48:03;8.45;;;6.82;;
32826;SDS011;51059;42.058;27.986;2023-07-20T11:50:28;13.75;;;7.45;;
32826;SDS011;51059;42.058;27.986;2023-07-20T11:52:54;8.93;;;6.22;;
32826;SDS011;51059;42.058;27.986;2023-07-20T11:55:20;10.80;;;6.80;;
32826;SDS011;51059;42.058;27.986;2023-07-20T11:58:02;11.15;;;6.93;;
32826;SDS011;51059;42.058;27.986;2023-07-20T12:00:27;9.65;;;6.60;;
32826;SDS011;51059;42.058;27.986;2023-07-20T12:02:53;14.40;;;6.75;;
32826;SDS011;51059;42.058;27.986;2023-07-20T12:05:19;10.93;;;6.13;;
32826;SDS011;51059;42.058;27.986;2023-07-20T12:07:47;11.30;;;6.28;;
32826;SDS011;51059;42.058;27.986;2023-07-20T12:10:22;13.98;;;6.40;;
32826;SDS011;51059;42.058;27.986;2023-07-20T12:12:50;8.93;;;6.05;;
32826;SDS011;51059;42.058;27.986;2023-07-20T12:15:16;8.52;;;5.95;;
32826;SDS011;51059;42.058;27.986;2023-07-20T12:17:43;12.40;;;6.22;;
32826;SDS011;51059;42.058;27.986;2023-07-20T12:20:09;11.75;;;5.85;;
32826;SDS011;51059;42.058;27.986;2023-07-20T12:22:43;10.35;;;5.57;;
32826;SDS011;51059;42.058;27.986;2023-07-20T12:25:09;15.20;;;6.05;;
32826;SDS011;51059;42.058;27.986;2023-07-20T12:27:37;11.30;;;5.60;;
32826;SDS011;51059;42.058;27.986;2023-07-20T12:30:04;8.73;;;5.57;;
32826;SDS011;51059;42.058;27.986;2023-07-20T12:32:31;9.40;;;5.63;;
32826;SDS011;51059;42.058;27.986;2023-07-20T12:34:56;7.82;;;5.60;;
32826;SDS011;51059;42.058;27.986;2023-07-20T12:37:22;8.65;;;5.90;;
32826;SDS011;51059;42.058;27.986;2023-07-20T12:39:48;9.80;;;6.00;;
32826;SDS011;51059;42.058;27.986;2023-07-20T12:42:21;12.30;;;6.47;;
32826;SDS011;51059;42.058;27.986;2023-07-20T12:44:49;8.93;;;5.82;;
32826;SDS011;51059;42.058;27.986;2023-07-20T12:47:14;11.75;;;6.22;;
32826;SDS011;51059;42.058;27.986;2023-07-20T12:49:40;7.55;;;5.63;;
32826;SDS011;51059;42.058;27.986;2023-07-20T12:52:06;10.02;;;6.18;;
32826;SDS011;51059;42.058;27.986;2023-07-20T12:54:32;11.05;;;6.05;;
32826;SDS011;51059;42.058;27.986;2023-07-20T12:56:57;7.18;;;5.70;;
32826;SDS011;51059;42.058;27.986;2023-07-20T12:59:23;8.38;;;5.97;;
32826;SDS011;51059;42.058;27.986;2023-07-20T13:01:50;13.15;;;5.63;;
32826;SDS011;51059;42.058;27.986;2023-07-20T13:04:16;9.95;;;6.05;;
32826;SDS011;51059;42.058;27.986;2023-07-20T13:06:41;16.55;;;6.75;;
32826;SDS011;51059;42.058;27.986;2023-07-20T13:09:07;9.45;;;6.68;;
32826;SDS011;51059;42.058;27.986;2023-07-20T13:11:32;10.68;;;6.60;;
32826;SDS011;51059;42.058;27.986;2023-07-20T13:13:57;11.65;;;6.57;;
32826;SDS011;51059;42.058;27.986;2023-07-20T13:16:23;7.15;;;6.15;;
32826;SDS011;51059;42.058;27.986;2023-07-20T13:18:49;8.25;;;6.53;;
32826;SDS011;51059;42.058;27.986;2023-07-20T13:21:14;11.18;;;6.82;;
32826;SDS011;51059;42.058;27.986;2023-07-20T13:23:39;12.32;;;6.57;;
32826;SDS011;51059;42.058;27.986;2023-07-20T13:26:05;10.00;;;6.38;;
32826;SDS011;51059;42.058;27.986;2023-07-20T13:28:31;8.77;;;6.05;;
32826;SDS011;51059;42.058;27.986;2023-07-20T13:30:56;12.98;;;6.63;;
32826;SDS011;51059;42.058;27.986;2023-07-20T13:33:22;11.05;;;6.68;;
32826;SDS011;51059;42.058;27.986;2023-07-20T13:35:48;9.45;;;6.78;;
32826;SDS011;51059;42.058;27.986;2023-07-20T13:38:13;9.48;;;6.10;;
32826;SDS011;51059;42.058;27.986;2023-07-20T13:40:39;11.45;;;6.40;;
32826;SDS011;51059;42.058;27.986;2023-07-20T13:43:05;10.30;;;6.50;;
32826;SDS011;51059;42.058;27.986;2023-07-20T13:45:31;7.78;;;6.82;;
32826;SDS011;51059;42.058;27.986;2023-07-20T13:47:57;7.88;;;6.18;;
32826;SDS011;51059;42.058;27.986;2023-07-20T13:50:23;9.18;;;7.65;;
32826;SDS011;51059;42.058;27.986;2023-07-20T13:52:49;7.50;;;6.80;;
32826;SDS011;51059;42.058;27.986;2023-07-20T13:55:15;11.63;;;6.70;;
32826;SDS011;51059;42.058;27.986;2023-07-20T13:57:41;11.20;;;6.60;;
32826;SDS011;51059;42.058;27.986;2023-07-20T14:00:07;13.23;;;6.22;;
32826;SDS011;51059;42.058;27.986;2023-07-20T14:02:36;15.45;;;6.70;;
32826;SDS011;51059;42.058;27.986;2023-07-20T14:05:04;7.72;;;6.72;;
32826;SDS011;51059;42.058;27.986;2023-07-20T14:07:31;15.70;;;6.85;;
32826;SDS011;51059;42.058;27.986;2023-07-20T14:09:57;15.05;;;6.95;;
32826;SDS011;51059;42.058;27.986;2023-07-20T14:12:22;8.63;;;6.80;;
32826;SDS011;51059;42.058;27.986;2023-07-20T14:14:48;11.18;;;6.63;;
32826;SDS011;51059;42.058;27.986;2023-07-20T14:17:13;7.10;;;6.35;;
32826;SDS011;51059;42.058;27.986;2023-07-20T14:19:40;12.20;;;6.53;;
32826;SDS011;51059;42.058;27.986;2023-07-20T14:22:06;12.38;;;7.00;;
32826;SDS011;51059;42.058;27.986;2023-07-20T14:24:31;11.00;;;6.97;;
32826;SDS011;51059;42.058;27.986;2023-07-20T14:26:56;12.05;;;6.82;;
32826;SDS011;51059;42.058;27.986;2023-07-20T14:29:22;9.98;;;6.85;;
32826;SDS011;51059;42.058;27.986;2023-07-20T14:31:49;9.68;;;7.20;;
32826;SDS011;51059;42.058;27.986;2023-07-20T14:34:17;13.00;;;7.40;;
32826;SDS011;51059;42.058;27.986;2023-07-20T14:36:44;14.18;;;7.75;;